sensor_id;sensor_type;location;lat;lon;timestamp;pressure;altitude;pressure_sealevel;temperature;humidity
50057;BME280;36875;49.468;11.200;2023-05-25T00:00:12;98438.41;;;19.89;45.17
50057;BME280;36875;49.468;11.200;2023-05-25T00:02:38;98435.69;;;19.89;45.05
50057;BME280;36875;49.468;11.200;2023-05-25T00:05:06;98428.41;;;19.84;44.94
50057;BME280;36875;49.468;11.200;2023-05-25T00:10:06;98442.56;;;19.86;45.22
50057;BME280;36875;49.468;11.200;2023-05-25T00:12:31;98433.56;;;19.86;45.52
50057;BME280;36875;49.468;11.200;2023-05-25T00:14:57;98432.44;;;19.87;45.21
50057;BME280;36875;49.468;11.200;2023-05-25T00:17:22;98434.38;;;19.86;45.22
50057;BME280;36875;49.468;11.200;2023-05-25T00:19:48;98438.22;;;19.85;45.42
50057;BME280;36875;49.468;11.200;2023-05-25T00:22:14;98427.59;;;19.83;45.18
50057;BME280;36875;49.468;11.200;2023-05-25T00:24:39;98425.66;;;19.84;45.33
50057;BME280;36875;49.468;11.200;2023-05-25T00:27:06;98421.00;;;19.84;45.25
50057;BME280;36875;49.468;11.200;2023-05-25T00:29:32;98416.66;;;19.83;45.36
50057;BME280;36875;49.468;11.200;2023-05-25T00:31:58;98418.88;;;19.81;45.29
50057;BME280;36875;49.468;11.200;2023-05-25T00:34:23;98419.69;;;19.82;45.31
50057;BME280;36875;49.468;11.200;2023-05-25T00:36:49;98417.25;;;19.80;45.14
50057;BME280;36875;49.468;11.200;2023-05-25T00:39:15;98418.06;;;19.81;45.21
50057;BME280;36875;49.468;11.200;2023-05-25T00:41:42;98413.72;;;19.80;45.46
50057;BME280;36875;49.468;11.200;2023-05-25T00:44:10;98421.09;;;19.79;45.01
50057;BME280;36875;49.468;11.200;2023-05-25T00:46:36;98420.00;;;19.80;45.36
50057;BME280;36875;49.468;11.200;2023-05-25T00:49:02;98425.44;;;19.80;45.27
50057;BME280;36875;49.468;11.200;2023-05-25T00:51:28;98420.56;;;19.77;45.17
50057;BME280;36875;49.468;11.200;2023-05-25T00:53:57;98419.78;;;19.77;45.45
50057;BME280;36875;49.468;11.200;2023-05-25T00:56:25;98429.59;;;19.78;45.47
50057;BME280;36875;49.468;11.200;2023-05-25T00:58:53;98425.53;;;19.75;45.45
50057;BME280;36875;49.468;11.200;2023-05-25T01:01:21;98422.50;;;19.77;45.10
50057;BME280;36875;49.468;11.200;2023-05-25T01:03:48;98427.97;;;19.77;45.09
50057;BME280;36875;49.468;11.200;2023-05-25T01:06:19;98414.59;;;19.75;45.30
50057;BME280;36875;49.468;11.200;2023-05-25T01:08:48;98421.69;;;19.76;45.17
50057;BME280;36875;49.468;11.200;2023-05-25T01:11:19;98423.91;;;19.74;45.49
50057;BME280;36875;49.468;11.200;2023-05-25T01:13:47;98423.09;;;19.74;45.35
50057;BME280;36875;49.468;11.200;2023-05-25T01:16:14;98420.06;;;19.75;45.55
50057;BME280;36875;49.468;11.200;2023-05-25T01:18:42;98416.81;;;19.73;45.20
50057;BME280;36875;49.468;11.200;2023-05-25T01:21:13;98411.41;;;19.68;45.32
50057;BME280;36875;49.468;11.200;2023-05-25T01:23:46;98403.72;;;19.70;45.26
50057;BME280;36875;49.468;11.200;2023-05-25T01:26:17;98404.84;;;19.69;45.25
50057;BME280;36875;49.468;11.200;2023-05-25T01:28:47;98408.09;;;19.71;45.24
50057;BME280;36875;49.468;11.200;2023-05-25T01:31:14;98411.09;;;19.70;45.37
50057;BME280;36875;49.468;11.200;2023-05-25T01:33:42;98411.91;;;19.70;45.07
50057;BME280;36875;49.468;11.200;2023-05-25T01:36:10;98408.38;;;19.70;45.16
50057;BME280;36875;49.468;11.200;2023-05-25T01:38:36;98406.56;;;19.65;45.58
50057;BME280;36875;49.468;11.200;2023-05-25T01:41:02;98418.22;;;19.71;45.53
50057;BME280;36875;49.468;11.200;2023-05-25T01:43:27;98414.63;;;19.70;45.31
50057;BME280;36875;49.468;11.200;2023-05-25T01:45:58;98408.38;;;19.70;45.51
50057;BME280;36875;49.468;11.200;2023-05-25T01:48:35;98413.31;;;19.68;45.26
50057;BME280;36875;49.468;11.200;2023-05-25T01:51:06;98414.13;;;19.68;45.12
50057;BME280;36875;49.468;11.200;2023-05-25T01:53:41;98427.78;;;19.68;45.50
50057;BME280;36875;49.468;11.200;2023-05-25T01:56:08;98422.31;;;19.68;45.62
50057;BME280;36875;49.468;11.200;2023-05-25T01:58:38;98416.97;;;19.63;45.63
50057;BME280;36875;49.468;11.200;2023-05-25T02:01:03;98417.47;;;19.65;45.52
50057;BME280;36875;49.468;11.200;2023-05-25T02:03:29;98421.00;;;19.65;45.54
50057;BME280;36875;49.468;11.200;2023-05-25T02:05:55;98416.63;;;19.64;45.39
50057;BME280;36875;49.468;11.200;2023-05-25T02:08:22;98411.19;;;19.64;45.32
50057;BME280;36875;49.468;11.200;2023-05-25T02:10:49;98408.44;;;19.64;45.69
50057;BME280;36875;49.468;11.200;2023-05-25T02:13:14;98407.66;;;19.64;45.58
50057;BME280;36875;49.468;11.200;2023-05-25T02:15:40;98416.97;;;19.63;45.39
50057;BME280;36875;49.468;11.200;2023-05-25T02:18:06;98408.22;;;19.61;45.27
50057;BME280;36875;49.468;11.200;2023-05-25T02:20:33;98417.75;;;19.63;45.76
50057;BME280;36875;49.468;11.200;2023-05-25T02:22:58;98435.25;;;19.62;45.30
50057;BME280;36875;49.468;11.200;2023-05-25T02:25:24;98428.69;;;19.63;45.41
50057;BME280;36875;49.468;11.200;2023-05-25T02:27:50;98427.88;;;19.63;45.63
50057;BME280;36875;49.468;11.200;2023-05-25T02:30:16;98430.06;;;19.61;45.56
50057;BME280;36875;49.468;11.200;2023-05-25T02:32:41;98423.50;;;19.62;45.41
50057;BME280;36875;49.468;11.200;2023-05-25T02:35:08;98415.41;;;19.57;45.26
50057;BME280;36875;49.468;11.200;2023-05-25T02:37:34;98417.53;;;19.60;45.42
50057;BME280;36875;49.468;11.200;2023-05-25T02:39:59;98416.41;;;19.61;45.55
50057;BME280;36875;49.468;11.200;2023-05-25T02:42:25;98420.28;;;19.60;45.41
50057;BME280;36875;49.468;11.200;2023-05-25T02:44:52;98416.41;;;19.61;45.36
50057;BME280;36875;49.468;11.200;2023-05-25T02:47:17;98420.28;;;19.60;45.34
50057;BME280;36875;49.468;11.200;2023-05-25T02:49:43;98422.19;;;19.59;45.30
50057;BME280;36875;49.468;11.200;2023-05-25T02:52:09;98418.63;;;19.59;45.28
50057;BME280;36875;49.468;11.200;2023-05-25T02:54:34;98418.63;;;19.59;45.73
50057;BME280;36875;49.468;11.200;2023-05-25T02:57:00;98419.75;;;19.58;45.54
50057;BME280;36875;49.468;11.200;2023-05-25T02:59:27;98419.75;;;19.58;45.49
50057;BME280;36875;49.468;11.200;2023-05-25T03:01:54;98418.13;;;19.57;45.25
50057;BME280;36875;49.468;11.200;2023-05-25T03:04:20;98415.19;;;19.53;45.25
50057;BME280;36875;49.468;11.200;2023-05-25T03:06:46;98423.59;;;19.57;45.56
50057;BME280;36875;49.468;11.200;2023-05-25T03:09:12;98417.09;;;19.53;45.60
50057;BME280;36875;49.468;11.200;2023-05-25T03:11:37;98423.38;;;19.53;45.76
50057;BME280;36875;49.468;11.200;2023-05-25T03:14:03;98421.16;;;19.55;45.47
50057;BME280;36875;49.468;11.200;2023-05-25T03:16:28;98418.75;;;19.54;45.72
50057;BME280;36875;49.468;11.200;2023-05-25T03:18:55;98423.88;;;19.55;45.62
50057;BME280;36875;49.468;11.200;2023-05-25T03:21:20;98423.38;;;19.53;45.63
50057;BME280;36875;49.468;11.200;2023-05-25T03:23:49;98426.09;;;19.53;45.48
50057;BME280;36875;49.468;11.200;2023-05-25T03:26:14;98424.25;;;19.49;45.35
50057;BME280;36875;49.468;11.200;2023-05-25T03:28:41;98426.94;;;19.54;45.69
50057;BME280;36875;49.468;11.200;2023-05-25T03:31:07;98426.94;;;19.54;45.50
50057;BME280;36875;49.468;11.200;2023-05-25T03:33:32;98429.94;;;19.52;45.41
50057;BME280;36875;49.468;11.200;2023-05-25T03:35:59;98436.22;;;19.53;45.63
50057;BME280;36875;49.468;11.200;2023-05-25T03:38:25;98435.41;;;19.52;45.38
50057;BME280;36875;49.468;11.200;2023-05-25T03:40:51;98448.22;;;19.52;45.39
50057;BME280;36875;49.468;11.200;2023-05-25T03:43:17;98443.88;;;19.51;45.46
50057;BME280;36875;49.468;11.200;2023-05-25T03:45:43;98455.59;;;19.51;45.65
50057;BME280;36875;49.468;11.200;2023-05-25T03:48:10;98454.81;;;19.51;45.38
50057;BME280;36875;49.468;11.200;2023-05-25T03:50:36;98460.25;;;19.51;45.36
50057;BME280;36875;49.468;11.200;2023-05-25T03:53:03;98461.34;;;19.50;45.47
50057;BME280;36875;49.468;11.200;2023-05-25T03:55:28;98468.75;;;19.49;45.70
50057;BME280;36875;49.468;11.200;2023-05-25T03:57:55;98476.13;;;19.49;45.31
50057;BME280;36875;49.468;11.200;2023-05-25T04:00:22;98474.25;;;19.44;45.31
50057;BME280;36875;49.468;11.200;2023-05-25T04:02:48;98479.94;;;19.48;45.24
50057;BME280;36875;49.468;11.200;2023-05-25T04:05:14;98478.84;;;19.49;45.79
50057;BME280;36875;49.468;11.200;2023-05-25T04:07:39;98481.59;;;19.49;45.56
50057;BME280;36875;49.468;11.200;2023-05-25T04:10:07;98480.75;;;19.48;45.44
50057;BME280;36875;49.468;11.200;2023-05-25T04:12:33;98476.13;;;19.49;45.64
50057;BME280;36875;49.468;11.200;2023-05-25T04:14:59;98478.03;;;19.48;45.78
50057;BME280;36875;49.468;11.200;2023-05-25T04:17:24;98481.59;;;19.49;45.61
50057;BME280;36875;49.468;11.200;2023-05-25T04:19:50;98483.19;;;19.50;45.55
50057;BME280;36875;49.468;11.200;2023-05-25T04:22:16;98474.50;;;19.48;45.19
50057;BME280;36875;49.468;11.200;2023-05-25T04:24:41;98478.84;;;19.49;45.66
50057;BME280;36875;49.468;11.200;2023-05-25T04:27:08;98479.94;;;19.48;45.36
50057;BME280;36875;49.468;11.200;2023-05-25T04:29:34;98475.63;;;19.47;45.64
50057;BME280;36875;49.468;11.200;2023-05-25T04:31:59;98478.34;;;19.47;45.62
50057;BME280;36875;49.468;11.200;2023-05-25T04:34:25;98478.34;;;19.47;45.63
50057;BME280;36875;49.468;11.200;2023-05-25T04:36:51;98488.13;;;19.48;45.71
50057;BME280;36875;49.468;11.200;2023-05-25T04:39:17;98488.94;;;19.48;45.23
50057;BME280;36875;49.468;11.200;2023-05-25T04:41:43;98497.97;;;19.49;45.54
50057;BME280;36875;49.468;11.200;2023-05-25T04:44:10;98497.97;;;19.49;45.62
50057;BME280;36875;49.468;11.200;2023-05-25T04:46:38;98499.88;;;19.48;45.27
50057;BME280;36875;49.468;11.200;2023-05-25T04:49:03;98510.50;;;19.50;45.45
50057;BME280;36875;49.468;11.200;2023-05-25T04:51:29;98502.00;;;19.51;45.69
50057;BME280;36875;49.468;11.200;2023-05-25T04:53:56;98502.81;;;19.52;45.69
50057;BME280;36875;49.468;11.200;2023-05-25T04:56:22;98504.97;;;19.55;45.14
50057;BME280;36875;49.468;11.200;2023-05-25T04:58:49;98503.88;;;19.56;45.61
50057;BME280;36875;49.468;11.200;2023-05-25T05:01:17;98500.84;;;19.57;45.66
50057;BME280;36875;49.468;11.200;2023-05-25T05:03:44;98491.53;;;19.58;45.35
50057;BME280;36875;49.468;11.200;2023-05-25T05:06:10;98502.69;;;19.62;45.55
50057;BME280;36875;49.468;11.200;2023-05-25T05:08:36;98502.41;;;19.63;45.44
50057;BME280;36875;49.468;11.200;2023-05-25T05:11:01;98507.56;;;19.65;45.72
50057;BME280;36875;49.468;11.200;2023-05-25T05:13:27;98520.09;;;19.66;46.06
50057;BME280;36875;49.468;11.200;2023-05-25T05:15:52;98516.78;;;19.69;45.68
50057;BME280;36875;49.468;11.200;2023-05-25T05:18:19;98527.72;;;19.69;45.99
50057;BME280;36875;49.468;11.200;2023-05-25T05:20:45;98521.75;;;19.67;45.90
50057;BME280;36875;49.468;11.200;2023-05-25T05:23:10;98522.53;;;19.68;46.41
50057;BME280;36875;49.468;11.200;2023-05-25T05:25:36;98520.41;;;19.64;46.42
50057;BME280;36875;49.468;11.200;2023-05-25T05:28:02;98524.47;;;19.67;46.47
50057;BME280;36875;49.468;11.200;2023-05-25T05:30:28;98530.22;;;19.65;46.01
50057;BME280;36875;49.468;11.200;2023-05-25T05:32:53;98525.34;;;19.62;46.29
50057;BME280;36875;49.468;11.200;2023-05-25T05:35:20;98524.03;;;19.60;46.12
50057;BME280;36875;49.468;11.200;2023-05-25T05:37:46;98525.94;;;19.59;45.72
50057;BME280;36875;49.468;11.200;2023-05-25T05:40:12;98522.91;;;19.61;45.71
50057;BME280;36875;49.468;11.200;2023-05-25T05:42:38;98525.13;;;19.59;45.47
50057;BME280;36875;49.468;11.200;2023-05-25T05:45:04;98521.28;;;19.60;45.30
50057;BME280;36875;49.468;11.200;2023-05-25T05:47:30;98535.22;;;19.58;45.31
50057;BME280;36875;49.468;11.200;2023-05-25T05:49:56;98536.31;;;19.57;45.43
50057;BME280;36875;49.468;11.200;2023-05-25T05:52:22;98526.81;;;19.55;44.85
50057;BME280;36875;49.468;11.200;2023-05-25T05:54:48;98533.41;;;19.54;44.95
50057;BME280;36875;49.468;11.200;2023-05-25T05:57:13;98536.13;;;19.54;44.55
50057;BME280;36875;49.468;11.200;2023-05-25T05:59:39;98537.22;;;19.53;44.64
50057;BME280;36875;49.468;11.200;2023-05-25T06:02:05;98525.56;;;19.47;44.49
50057;BME280;36875;49.468;11.200;2023-05-25T06:04:31;98539.44;;;19.51;43.91
50057;BME280;36875;49.468;11.200;2023-05-25T06:06:57;98533.75;;;19.47;43.95
50057;BME280;36875;49.468;11.200;2023-05-25T06:09:24;98543.53;;;19.48;43.61
50057;BME280;36875;49.468;11.200;2023-05-25T06:11:52;98543.25;;;19.50;43.83
50057;BME280;36875;49.468;11.200;2023-05-25T06:14:18;98534.25;;;19.49;43.66
50057;BME280;36875;49.468;11.200;2023-05-25T06:16:44;98532.34;;;19.50;42.84
50057;BME280;36875;49.468;11.200;2023-05-25T06:19:10;98533.06;;;19.55;43.08
50057;BME280;36875;49.468;11.200;2023-05-25T06:21:37;98536.25;;;19.62;42.68
50057;BME280;36875;49.468;11.200;2023-05-25T06:24:03;98533.69;;;19.71;42.90
50057;BME280;36875;49.468;11.200;2023-05-25T06:26:30;98522.44;;;19.78;42.48
50057;BME280;36875;49.468;11.200;2023-05-25T06:28:56;98529.44;;;19.84;42.40
50057;BME280;36875;49.468;11.200;2023-05-25T06:31:21;98527.75;;;19.88;42.53
50057;BME280;36875;49.468;11.200;2023-05-25T06:33:50;98528.47;;;19.94;42.33
50057;BME280;36875;49.468;11.200;2023-05-25T06:36:15;98539.28;;;19.85;41.70
50057;BME280;36875;49.468;11.200;2023-05-25T06:38:41;98531.16;;;19.80;41.31
50057;BME280;36875;49.468;11.200;2023-05-25T06:41:06;98531.22;;;19.75;41.72
50057;BME280;36875;49.468;11.200;2023-05-25T06:43:36;98534.78;;;19.70;41.37
50057;BME280;36875;49.468;11.200;2023-05-25T06:46:01;98533.44;;;19.73;41.37
50057;BME280;36875;49.468;11.200;2023-05-25T06:48:27;98534.75;;;19.75;41.42
50057;BME280;36875;49.468;11.200;2023-05-25T06:50:52;98532.84;;;19.76;41.96
50057;BME280;36875;49.468;11.200;2023-05-25T06:53:18;98534.19;;;19.78;42.07
50057;BME280;36875;49.468;11.200;2023-05-25T06:55:43;98530.19;;;19.90;42.02
50057;BME280;36875;49.468;11.200;2023-05-25T06:58:09;98532.06;;;19.94;41.90
50057;BME280;36875;49.468;11.200;2023-05-25T07:00:37;98535.00;;;19.98;42.02
50057;BME280;36875;49.468;11.200;2023-05-25T07:03:02;98522.94;;;19.99;42.34
50057;BME280;36875;49.468;11.200;2023-05-25T07:05:28;98530.56;;;20.02;42.31
50057;BME280;36875;49.468;11.200;2023-05-25T07:07:53;98525.63;;;20.04;42.42
50057;BME280;36875;49.468;11.200;2023-05-25T07:10:19;98534.31;;;20.06;41.94
50057;BME280;36875;49.468;11.200;2023-05-25T07:12:44;98529.06;;;20.10;42.18
50057;BME280;36875;49.468;11.200;2023-05-25T07:15:10;98529.28;;;20.13;42.21
50057;BME280;36875;49.468;11.200;2023-05-25T07:17:38;98528.16;;;20.14;42.11
50057;BME280;36875;49.468;11.200;2023-05-25T07:20:06;98521.03;;;20.18;42.37
50057;BME280;36875;49.468;11.200;2023-05-25T07:22:31;98518.28;;;20.18;42.17
50057;BME280;36875;49.468;11.200;2023-05-25T07:24:57;98523.16;;;20.21;42.30
50057;BME280;36875;49.468;11.200;2023-05-25T07:27:22;98515.78;;;20.22;42.39
50057;BME280;36875;49.468;11.200;2023-05-25T07:29:49;98521.75;;;20.24;42.28
50057;BME280;36875;49.468;11.200;2023-05-25T07:32:15;98522.03;;;20.22;42.28
50057;BME280;36875;49.468;11.200;2023-05-25T07:34:42;98529.34;;;20.27;42.46
50057;BME280;36875;49.468;11.200;2023-05-25T07:37:07;98515.47;;;20.23;42.22
50057;BME280;36875;49.468;11.200;2023-05-25T07:39:33;98520.34;;;20.27;42.30
50057;BME280;36875;49.468;11.200;2023-05-25T07:41:58;98527.38;;;20.33;42.39
50057;BME280;36875;49.468;11.200;2023-05-25T07:44:24;98528.97;;;20.34;42.53
50057;BME280;36875;49.468;11.200;2023-05-25T07:46:49;98530.59;;;20.35;42.46
50057;BME280;36875;49.468;11.200;2023-05-25T07:49:15;98528.38;;;20.37;42.26
50057;BME280;36875;49.468;11.200;2023-05-25T07:51:42;98524.63;;;20.33;42.29
50057;BME280;36875;49.468;11.200;2023-05-25T07:54:07;98531.63;;;20.39;42.46
50057;BME280;36875;49.468;11.200;2023-05-25T07:56:33;98527.75;;;20.40;42.45
50057;BME280;36875;49.468;11.200;2023-05-25T07:58:58;98530.19;;;20.41;42.57
50057;BME280;36875;49.468;11.200;2023-05-25T08:01:25;98530.50;;;20.40;42.48
50057;BME280;36875;49.468;11.200;2023-05-25T08:03:50;98547.13;;;20.44;42.40
50057;BME280;36875;49.468;11.200;2023-05-25T08:06:16;98539.75;;;20.44;42.54
50057;BME280;36875;49.468;11.200;2023-05-25T08:08:43;98545.50;;;20.42;42.25
50057;BME280;36875;49.468;11.200;2023-05-25T08:11:11;98541.88;;;20.47;42.45
50057;BME280;36875;49.468;11.200;2023-05-25T08:13:37;98536.91;;;20.49;42.29
50057;BME280;36875;49.468;11.200;2023-05-25T08:16:03;98534.16;;;20.49;42.49
50057;BME280;36875;49.468;11.200;2023-05-25T08:18:28;98534.72;;;20.51;42.39
50057;BME280;36875;49.468;11.200;2023-05-25T08:20:55;98530.84;;;20.52;42.58
50057;BME280;36875;49.468;11.200;2023-05-25T08:23:21;98535.50;;;20.52;42.58
50057;BME280;36875;49.468;11.200;2023-05-25T08:25:47;98530.56;;;20.54;42.73
50057;BME280;36875;49.468;11.200;2023-05-25T08:28:13;98531.66;;;20.53;42.42
50057;BME280;36875;49.468;11.200;2023-05-25T08:30:39;98537.34;;;20.56;42.41
50057;BME280;36875;49.468;11.200;2023-05-25T08:33:05;98533.50;;;20.57;42.78
50057;BME280;36875;49.468;11.200;2023-05-25T08:35:31;98527.53;;;20.55;42.55
50057;BME280;36875;49.468;11.200;2023-05-25T08:37:57;98530.25;;;20.55;42.54
50057;BME280;36875;49.468;11.200;2023-05-25T08:40:25;98532.06;;;20.60;42.70
50057;BME280;36875;49.468;11.200;2023-05-25T08:42:53;98534.56;;;20.62;42.80
50057;BME280;36875;49.468;11.200;2023-05-25T08:45:19;98530.22;;;20.60;42.88
50057;BME280;36875;49.468;11.200;2023-05-25T08:47:47;98520.34;;;20.59;42.75
50057;BME280;36875;49.468;11.200;2023-05-25T08:50:14;98529.88;;;20.62;42.79
50057;BME280;36875;49.468;11.200;2023-05-25T08:52:43;98535.06;;;20.64;42.93
50057;BME280;36875;49.468;11.200;2023-05-25T08:55:11;98514.06;;;20.59;42.55
50057;BME280;36875;49.468;11.200;2023-05-25T08:57:45;98526.56;;;20.65;42.86
50057;BME280;36875;49.468;11.200;2023-05-25T09:00:21;98523.81;;;20.65;42.61
50057;BME280;36875;49.468;11.200;2023-05-25T09:02:53;98517.34;;;20.61;42.93
50057;BME280;36875;49.468;11.200;2023-05-25T09:05:22;98532.84;;;20.66;42.75
50057;BME280;36875;49.468;11.200;2023-05-25T09:07:48;98541.03;;;20.66;43.14
50057;BME280;36875;49.468;11.200;2023-05-25T09:10:16;98539.94;;;20.67;42.99
50057;BME280;36875;49.468;11.200;2023-05-25T09:12:41;98534.75;;;20.65;42.73
50057;BME280;36875;49.468;11.200;2023-05-25T09:15:09;98528.53;;;20.59;42.82
50057;BME280;36875;49.468;11.200;2023-05-25T09:17:37;98535.34;;;20.62;42.22
50057;BME280;36875;49.468;11.200;2023-05-25T09:20:03;98526.41;;;20.56;42.52
50057;BME280;36875;49.468;11.200;2023-05-25T09:22:28;98540.81;;;20.62;42.67
50057;BME280;36875;49.468;11.200;2023-05-25T09:24:54;98532.31;;;20.64;42.22
50057;BME280;36875;49.468;11.200;2023-05-25T09:27:22;98542.16;;;20.65;42.73
50057;BME280;36875;49.468;11.200;2023-05-25T09:29:48;98535.34;;;20.62;42.55
50057;BME280;36875;49.468;11.200;2023-05-25T09:32:15;98540.81;;;20.62;42.55
50057;BME280;36875;49.468;11.200;2023-05-25T09:34:43;98537.00;;;20.63;42.80
50057;BME280;36875;49.468;11.200;2023-05-25T09:37:10;98538.63;;;20.64;42.73
50057;BME280;36875;49.468;11.200;2023-05-25T09:39:36;98534.75;;;20.65;42.55
50057;BME280;36875;49.468;11.200;2023-05-25T09:42:02;98530.09;;;20.66;42.86
50057;BME280;36875;49.468;11.200;2023-05-25T09:44:28;98532.16;;;20.74;42.88
50057;BME280;36875;49.468;11.200;2023-05-25T09:46:53;98522.03;;;20.74;43.28
50057;BME280;36875;49.468;11.200;2023-05-25T09:49:20;98520.09;;;20.75;43.10
50057;BME280;36875;49.468;11.200;2023-05-25T09:51:48;98521.50;;;20.72;43.19
50057;BME280;36875;49.468;11.200;2023-05-25T09:54:13;98519.56;;;20.73;42.96
50057;BME280;36875;49.468;11.200;2023-05-25T09:56:40;98524.25;;;20.72;43.02
50057;BME280;36875;49.468;11.200;2023-05-25T09:59:06;98525.03;;;20.73;43.39
50057;BME280;36875;49.468;11.200;2023-05-25T10:01:32;98529.41;;;20.74;43.11
50057;BME280;36875;49.468;11.200;2023-05-25T10:03:57;98528.28;;;20.75;43.05
50057;BME280;36875;49.468;11.200;2023-05-25T10:06:26;98528.28;;;20.75;43.20
50057;BME280;36875;49.468;11.200;2023-05-25T10:08:55;98529.94;;;20.76;43.38
50057;BME280;36875;49.468;11.200;2023-05-25T10:11:23;98517.13;;;20.71;43.25
50057;BME280;36875;49.468;11.200;2023-05-25T10:13:49;98533.16;;;20.78;43.36
50057;BME280;36875;49.468;11.200;2023-05-25T10:16:21;98535.91;;;20.78;42.99
50057;BME280;36875;49.468;11.200;2023-05-25T10:18:54;98526.38;;;20.75;43.12
50057;BME280;36875;49.468;11.200;2023-05-25T10:21:24;98532.06;;;20.79;43.51
50057;BME280;36875;49.468;11.200;2023-05-25T10:23:57;98530.94;;;20.80;43.34
50057;BME280;36875;49.468;11.200;2023-05-25T10:26:26;98525.97;;;20.82;43.56
50057;BME280;36875;49.468;11.200;2023-05-25T10:28:55;98525.16;;;20.82;43.39
50057;BME280;36875;49.468;11.200;2023-05-25T10:31:25;98524.88;;;20.83;43.38
50057;BME280;36875;49.468;11.200;2023-05-25T10:33:54;98531.16;;;20.84;43.33
50057;BME280;36875;49.468;11.200;2023-05-25T10:36:21;98531.16;;;20.84;43.60
50057;BME280;36875;49.468;11.200;2023-05-25T10:38:50;98526.47;;;20.84;43.58
50057;BME280;36875;49.468;11.200;2023-05-25T10:41:18;98528.72;;;20.82;43.33
50057;BME280;36875;49.468;11.200;2023-05-25T10:43:45;98526.47;;;20.84;43.44
50057;BME280;36875;49.468;11.200;2023-05-25T10:46:11;98523.44;;;20.86;43.48
50057;BME280;36875;49.468;11.200;2023-05-25T10:48:44;98524.28;;;20.86;43.61
50057;BME280;36875;49.468;11.200;2023-05-25T10:51:10;98512.59;;;20.80;43.40
50057;BME280;36875;49.468;11.200;2023-05-25T10:53:36;98525.88;;;20.87;43.68
50057;BME280;36875;49.468;11.200;2023-05-25T10:56:03;98517.38;;;20.89;43.77
50057;BME280;36875;49.468;11.200;2023-05-25T10:58:30;98515.44;;;20.89;43.68
50057;BME280;36875;49.468;11.200;2023-05-25T11:00:57;98517.38;;;20.89;43.52
50057;BME280;36875;49.468;11.200;2023-05-25T11:03:46;98530.75;;;20.90;43.87
50057;BME280;36875;49.468;11.200;2023-05-25T11:06:13;98517.00;;;20.95;44.00
50057;BME280;36875;49.468;11.200;2023-05-25T11:08:50;98522.75;;;20.94;43.56
50057;BME280;36875;49.468;11.200;2023-05-25T11:11:16;98515.34;;;20.94;43.76
50057;BME280;36875;49.468;11.200;2023-05-25T11:13:44;98517.28;;;20.94;43.96
50057;BME280;36875;49.468;11.200;2023-05-25T11:16:14;98510.47;;;20.91;44.00
50057;BME280;36875;49.468;11.200;2023-05-25T11:18:45;98499.75;;;20.95;43.85
50057;BME280;36875;49.468;11.200;2023-05-25T11:21:15;98507.44;;;20.93;43.87
50057;BME280;36875;49.468;11.200;2023-05-25T11:23:53;98514.25;;;20.95;43.85
50057;BME280;36875;49.468;11.200;2023-05-25T11:26:19;98507.44;;;20.93;43.71
50057;BME280;36875;49.468;11.200;2023-05-25T11:28:51;98512.13;;;20.92;43.71
50057;BME280;36875;49.468;11.200;2023-05-25T11:31:23;98502.78;;;20.93;43.84
50057;BME280;36875;49.468;11.200;2023-05-25T11:33:54;98489.53;;;20.87;44.16
50057;BME280;36875;49.468;11.200;2023-05-25T11:36:22;98501.19;;;20.92;44.37
50057;BME280;36875;49.468;11.200;2023-05-25T11:38:47;98507.34;;;20.98;44.04
50057;BME280;36875;49.468;11.200;2023-05-25T11:41:17;98508.66;;;21.01;44.22
50057;BME280;36875;49.468;11.200;2023-05-25T11:43:44;98496.63;;;21.02;44.13
50057;BME280;36875;49.468;11.200;2023-05-25T11:46:12;98498.25;;;21.03;44.01
50057;BME280;36875;49.468;11.200;2023-05-25T11:48:42;98496.03;;;21.05;44.28
50057;BME280;36875;49.468;11.200;2023-05-25T11:51:07;98498.44;;;21.06;44.10
50057;BME280;36875;49.468;11.200;2023-05-25T11:53:33;98491.66;;;21.04;44.35
50057;BME280;36875;49.468;11.200;2023-05-25T11:55:58;98503.00;;;21.11;44.11
50057;BME280;36875;49.468;11.200;2023-05-25T11:58:24;98497.03;;;21.09;44.20
50057;BME280;36875;49.468;11.200;2023-05-25T12:00:49;98494.28;;;21.09;44.46
50057;BME280;36875;49.468;11.200;2023-05-25T12:03:29;98495.91;;;21.10;44.14
50057;BME280;36875;49.468;11.200;2023-05-25T12:05:56;98497.63;;;21.06;44.31
50057;BME280;36875;49.468;11.200;2023-05-25T12:08:30;98501.16;;;21.06;43.91
50057;BME280;36875;49.468;11.200;2023-05-25T12:10:56;98486.19;;;21.04;44.23
50057;BME280;36875;49.468;11.200;2023-05-25T12:13:22;98488.41;;;21.02;44.13
50057;BME280;36875;49.468;11.200;2023-05-25T12:15:48;98494.19;;;21.00;44.07
50057;BME280;36875;49.468;11.200;2023-05-25T12:18:13;98479.50;;;20.96;44.18
50057;BME280;36875;49.468;11.200;2023-05-25T12:20:40;98486.28;;;20.98;44.26
50057;BME280;36875;49.468;11.200;2023-05-25T12:23:06;98484.66;;;20.97;44.29
50057;BME280;36875;49.468;11.200;2023-05-25T12:25:32;98480.28;;;20.96;44.40
50057;BME280;36875;49.468;11.200;2023-05-25T12:28:10;98473.22;;;20.95;44.12
50057;BME280;36875;49.468;11.200;2023-05-25T12:30:36;98473.22;;;20.95;44.29
50057;BME280;36875;49.468;11.200;2023-05-25T12:33:02;98472.38;;;20.95;44.09
50057;BME280;36875;49.468;11.200;2023-05-25T12:35:28;98469.66;;;20.95;44.06
50057;BME280;36875;49.468;11.200;2023-05-25T12:41:03;98457.91;;;20.94;44.40
50057;BME280;36875;49.468;11.200;2023-05-25T12:43:35;98451.34;;;20.95;44.41
50057;BME280;36875;49.468;11.200;2023-05-25T12:46:01;98452.94;;;20.96;44.41
50057;BME280;36875;49.468;11.200;2023-05-25T12:48:27;98452.94;;;20.96;44.43
50057;BME280;36875;49.468;11.200;2023-05-25T12:50:56;98456.47;;;20.97;44.28
50057;BME280;36875;49.468;11.200;2023-05-25T12:53:22;98455.66;;;20.96;44.47